createdAt,value
2022-12-18T00:00:25.870Z,7.3
2022-12-18T00:04:28.284Z,27.6
2022-12-18T00:06:28.101Z,24.5
2022-12-18T00:08:30.546Z,29.3
2022-12-18T00:10:30.446Z,32.7
2022-12-18T00:12:30.432Z,26.8
2022-12-18T00:14:32.729Z,42.9
2022-12-18T00:16:32.678Z,29.4
2022-12-18T00:18:32.585Z,23.1
2022-12-18T00:20:35.006Z,23.4
2022-12-18T00:22:34.970Z,55.5
2022-12-18T00:24:34.759Z,38.6
2022-12-18T00:26:37.231Z,29.5
2022-12-18T00:28:37.203Z,41.4
2022-12-18T00:30:37.130Z,42.3
2022-12-18T00:32:39.567Z,36.3
2022-12-18T00:34:39.423Z,39
2022-12-18T00:36:39.323Z,40.9
2022-12-18T00:38:41.736Z,36.6
2022-12-18T00:40:41.618Z,50.8
2022-12-18T00:42:41.558Z,25.9
2022-12-18T00:44:44.012Z,36.2
2022-12-18T00:46:43.919Z,25.7
2022-12-18T00:48:43.733Z,38.4
2022-12-18T01:02:50.742Z,8.1
2022-12-18T01:04:50.394Z,26.6
2022-12-18T01:06:50.233Z,37.7
2022-12-18T01:08:52.776Z,28.6
2022-12-18T01:10:52.659Z,28.2
2022-12-18T01:12:52.621Z,34.8
2022-12-18T01:14:55.133Z,27.1
2022-12-18T01:16:54.999Z,47.8
2022-12-18T01:18:54.863Z,52.9
2022-12-18T01:20:57.259Z,34.5
2022-12-18T01:26:59.615Z,28.8
2022-12-18T01:28:59.663Z,22.6
2022-12-18T01:30:59.420Z,16.9
2022-12-18T01:33:01.858Z,17.8
2022-12-18T01:35:01.797Z,32.5
2022-12-18T01:37:01.658Z,25.9
2022-12-18T01:39:04.348Z,24.5
2022-12-18T01:41:04.067Z,35.8
2022-12-18T01:43:03.934Z,26.1
2022-12-18T01:45:06.366Z,25.6
2022-12-18T01:47:06.319Z,41.8
2022-12-18T01:49:06.262Z,33.7
2022-12-18T01:51:08.785Z,21.9
2022-12-18T01:53:08.753Z,26.3
2022-12-18T01:55:08.668Z,23.7
2022-12-18T01:57:11.135Z,25.8
2022-12-18T01:59:11.100Z,34.6
2022-12-18T02:01:11.091Z,38.2
2022-12-18T02:03:13.582Z,27.2
2022-12-18T02:05:13.300Z,27.7
2022-12-18T02:07:13.227Z,29.9
2022-12-18T02:09:15.731Z,23.4
2022-12-18T02:11:15.572Z,25.7
2022-12-18T02:13:15.396Z,35
2022-12-18T02:15:17.918Z,27.8
2022-12-18T02:17:17.867Z,27.5
2022-12-18T02:19:17.818Z,35.5
2022-12-18T02:21:20.332Z,20.1
2022-12-18T02:23:20.254Z,12.2
2022-12-18T02:25:20.211Z,32
2022-12-18T02:27:22.748Z,17.6
2022-12-18T02:29:22.672Z,13.1
2022-12-18T02:31:22.608Z,37.6
2022-12-18T02:36:24.287Z,26.4
2022-12-18T02:38:24.242Z,34.3
2022-12-18T02:40:24.181Z,26
2022-12-18T02:44:26.627Z,30.3
2022-12-18T02:46:26.590Z,33.7
2022-12-18T02:48:29.061Z,25.4
2022-12-18T02:50:29.002Z,29.9
2022-12-18T02:52:28.967Z,41.8
2022-12-18T02:54:31.471Z,21.1
2022-12-18T02:56:31.415Z,29.1
2022-12-18T02:58:31.364Z,36.7
2022-12-18T03:00:33.856Z,40
2022-12-18T03:04:33.637Z,13.1
2022-12-18T03:06:36.178Z,22.1
2022-12-18T03:08:36.084Z,19.7
2022-12-18T03:20:40.821Z,23.7
2022-12-18T03:24:43.269Z,17.8
2022-12-18T03:26:43.196Z,20.2
2022-12-18T03:28:43.107Z,23.6
2022-12-18T03:32:45.542Z,24.8
2022-12-18T03:34:45.466Z,17.3
2022-12-18T03:39:49.888Z,16.8
2022-12-18T03:41:49.809Z,15.4
2022-12-18T03:43:49.693Z,23.4
2022-12-18T03:45:52.260Z,22.2
2022-12-18T03:49:52.051Z,11.5
2022-12-18T03:51:54.571Z,19.7
2022-12-18T03:53:54.492Z,15.8
2022-12-18T03:55:54.400Z,28.3
2022-12-18T03:57:56.904Z,16.4
2022-12-18T04:01:56.875Z,18.5
2022-12-18T04:03:59.348Z,10.8
2022-12-18T04:05:59.208Z,9.8
2022-12-18T04:07:59.153Z,13.9
2022-12-18T04:10:01.661Z,27
2022-12-18T04:12:01.611Z,25
2022-12-18T04:14:05.871Z,17.8
2022-12-18T04:16:04.058Z,29.6
2022-12-18T04:18:03.931Z,21.4
2022-12-18T04:20:03.885Z,16.3
2022-12-18T04:22:06.380Z,19.1
2022-12-18T04:24:06.338Z,17.3
2022-12-18T04:26:06.236Z,22.9
2022-12-18T04:28:08.713Z,24.5
2022-12-18T04:30:08.643Z,19.4
2022-12-18T04:34:11.071Z,19.2
2022-12-18T04:36:11.004Z,18.7
2022-12-18T04:38:10.906Z,17.6
2022-12-18T04:42:13.348Z,27.7
2022-12-18T04:44:13.267Z,18.8
2022-12-18T04:46:15.870Z,13
2022-12-18T04:48:15.700Z,16.3
2022-12-18T04:50:15.635Z,36.1
2022-12-18T04:54:18.001Z,22.5
2022-12-18T04:56:17.939Z,23.2
2022-12-18T04:58:20.450Z,19.9
2022-12-18T05:00:20.407Z,20.8
2022-12-18T05:02:20.386Z,40.7
2022-12-18T05:04:22.773Z,18.1
2022-12-18T05:06:22.608Z,20.1
2022-12-18T05:08:22.556Z,22
2022-12-18T05:10:25.053Z,27.1
2022-12-18T05:12:24.935Z,26.8
2022-12-18T05:14:24.784Z,14.4
2022-12-18T05:16:27.316Z,11.3
2022-12-18T05:18:27.211Z,15.5
2022-12-18T05:20:27.111Z,13.8
2022-12-18T05:22:29.596Z,25.7
2022-12-18T05:24:29.508Z,21.3
2022-12-18T05:26:29.441Z,16.4
2022-12-18T05:28:31.974Z,26.3
2022-12-18T05:30:31.902Z,10.6
2022-12-18T05:32:31.784Z,13.4
2022-12-18T05:38:34.145Z,46.3
2022-12-18T05:44:36.447Z,15.1
2022-12-18T05:46:39.008Z,25.7
2022-12-18T05:48:38.889Z,15.9
2022-12-18T05:50:38.777Z,19.8
2022-12-18T05:54:41.225Z,20.9
2022-12-18T05:56:46.981Z,16.1
2022-12-18T05:58:43.641Z,15.7
2022-12-18T06:00:43.549Z,10.6
2022-12-18T06:02:43.612Z,8.4
2022-12-18T06:04:45.975Z,11.2
2022-12-18T06:06:45.913Z,7.9
2022-12-18T06:08:46.756Z,24.7
2022-12-18T06:10:48.307Z,10.3
2022-12-18T06:12:48.235Z,15.1
2022-12-18T06:14:48.178Z,15.9
2022-12-18T06:16:50.639Z,23.4
2022-12-18T06:18:50.541Z,14.6
2022-12-18T06:20:50.457Z,14.8
2022-12-18T06:25:58.863Z,8.9
2022-12-18T06:27:58.795Z,8.6
2022-12-18T06:37:04.507Z,12.5
2022-12-18T06:39:04.445Z,12.8
2022-12-18T06:41:06.973Z,12
2022-12-18T06:43:06.889Z,17.7
2022-12-18T06:45:06.784Z,10.9
2022-12-18T06:47:09.474Z,9.6
2022-12-18T06:49:09.187Z,9.4
2022-12-18T06:51:09.116Z,8.3
2022-12-18T06:53:11.617Z,13.7
2022-12-18T06:55:11.500Z,14.8
2022-12-18T06:57:11.435Z,8.2
2022-12-18T06:59:13.948Z,13.3
2022-12-18T07:01:13.928Z,12.6
2022-12-18T07:03:13.848Z,18.5
2022-12-18T07:05:16.223Z,13.7
2022-12-18T07:07:16.149Z,18.9
2022-12-18T07:09:16.064Z,10.9
2022-12-18T07:11:18.546Z,13.1
2022-12-18T07:13:18.474Z,13
2022-12-18T07:15:18.434Z,12.1
2022-12-18T07:17:20.886Z,14.4
2022-12-18T07:19:20.799Z,21
2022-12-18T07:21:20.717Z,12.3
2022-12-18T07:23:23.192Z,9.5
2022-12-18T07:25:23.117Z,10.8
2022-12-18T07:29:25.480Z,7.2
2022-12-18T07:31:25.468Z,12.9
2022-12-18T07:39:27.631Z,8.5
2022-12-18T07:41:30.111Z,16.9
2022-12-18T07:43:30.026Z,22.4
2022-12-18T07:45:29.965Z,19.6
2022-12-18T07:47:32.459Z,15.9
2022-12-18T07:49:32.363Z,13
2022-12-18T07:51:32.284Z,18.1
2022-12-18T07:53:34.742Z,14.8
2022-12-18T07:55:54.748Z,24
2022-12-18T07:57:50.078Z,8.7
2022-12-18T07:59:37.102Z,10.4
2022-12-18T08:01:37.173Z,10.9
2022-12-18T08:03:37.284Z,10.6
2022-12-18T08:05:39.461Z,8.9
2022-12-18T08:09:39.320Z,6.6
2022-12-18T08:11:41.783Z,9.9
2022-12-18T08:13:42.461Z,10.1
2022-12-18T08:15:41.613Z,16.5
2022-12-18T08:17:44.148Z,13.4
2022-12-18T08:19:44.066Z,6.9
2022-12-18T08:21:43.991Z,12.3
2022-12-18T08:23:46.755Z,11.8
2022-12-18T08:25:46.434Z,7.9
2022-12-18T08:27:46.357Z,14.8
2022-12-18T08:33:48.728Z,12.8
2022-12-18T08:42:39.714Z,13.3
2022-12-18T08:46:39.742Z,7.6
2022-12-18T08:48:42.110Z,11.3
2022-12-18T08:50:42.057Z,15.8
2022-12-18T08:52:41.994Z,11.9
2022-12-18T08:54:44.477Z,9.7
2022-12-18T08:56:44.355Z,19.8
2022-12-18T08:58:44.280Z,11.8
2022-12-18T09:00:46.808Z,14.6
2022-12-18T09:04:47.386Z,11.8
2022-12-18T09:06:49.135Z,10.3
2022-12-18T09:08:48.997Z,11
2022-12-18T09:18:53.813Z,17
2022-12-18T09:22:53.684Z,19.6
2022-12-18T09:24:56.210Z,15.2
2022-12-18T09:26:57.896Z,12.1
2022-12-18T09:37:00.502Z,21
2022-12-18T09:39:04.989Z,11.5
2022-12-18T09:41:00.291Z,14.9
2022-12-18T09:46:01.409Z,8.4
2022-12-18T09:48:01.221Z,19.3
2022-12-18T09:50:01.103Z,5.6
2022-12-18T09:52:03.664Z,3.3
2022-12-18T09:54:03.464Z,11.1
2022-12-18T09:56:03.348Z,16.7
2022-12-18T10:01:08.636Z,10.2
2022-12-18T10:03:08.578Z,11.5
2022-12-18T10:05:08.352Z,15.7
2022-12-18T10:07:10.767Z,14.9
2022-12-18T10:09:10.679Z,8.7
2022-12-18T10:11:10.573Z,25.5
2022-12-18T10:13:12.979Z,27.1
2022-12-18T10:15:12.894Z,12.9
2022-12-18T10:17:12.725Z,11.6
2022-12-18T10:19:15.205Z,18.4
2022-12-18T10:21:15.046Z,13
2022-12-18T10:23:14.931Z,13.8
2022-12-18T10:25:17.391Z,13.7
2022-12-18T10:27:17.307Z,6.7
2022-12-18T10:29:17.226Z,14.8
2022-12-18T10:31:19.656Z,19.6
2022-12-18T10:33:19.464Z,11.1
2022-12-18T10:35:19.362Z,15.2
2022-12-18T10:37:21.803Z,21.4
2022-12-18T10:43:24.026Z,12
2022-12-18T10:45:23.918Z,15.2
2022-12-18T10:47:23.798Z,13.1
2022-12-18T10:51:26.102Z,12.4
2022-12-18T10:53:26.004Z,11.2
2022-12-18T10:55:28.454Z,10.9
2022-12-18T10:59:28.231Z,9.4
2022-12-18T11:01:30.786Z,9.1
2022-12-18T11:03:30.618Z,9.2
2022-12-18T11:05:30.453Z,16.9
2022-12-18T11:07:32.914Z,14.3
2022-12-18T11:09:32.830Z,17.6
2022-12-18T11:11:32.671Z,10.1
2022-12-18T11:13:35.144Z,12.9
2022-12-18T11:15:35.035Z,18.6
2022-12-18T11:17:34.903Z,11.1
2022-12-18T11:19:37.352Z,15.9
2022-12-18T11:21:37.282Z,13.9
2022-12-18T11:23:37.137Z,9.8
2022-12-18T11:25:39.585Z,7.7
2022-12-18T11:29:44.799Z,11.6
2022-12-18T11:31:41.906Z,11.4
2022-12-18T11:33:58.369Z,14.8
2022-12-18T11:35:41.601Z,10.1
2022-12-18T11:37:44.041Z,14.7
2022-12-18T11:39:43.968Z,10.6
2022-12-18T11:41:43.870Z,4.5
2022-12-18T11:43:46.299Z,14.3
2022-12-18T11:45:46.191Z,13.2
2022-12-18T11:47:46.031Z,14.8
2022-12-18T11:49:48.486Z,12.8
2022-12-18T11:51:48.394Z,9.7
2022-12-18T11:53:48.319Z,9.8
2022-12-18T11:55:50.737Z,12.6
2022-12-18T11:57:50.639Z,13.3
2022-12-18T12:01:53.130Z,8.3
2022-12-18T12:03:52.945Z,9.2
2022-12-18T12:05:52.765Z,9.4
2022-12-18T12:07:55.188Z,14.9
2022-12-18T12:09:55.065Z,8.2
2022-12-18T12:11:55.007Z,10
2022-12-18T12:13:57.426Z,12.1
2022-12-18T12:15:57.356Z,10.9
2022-12-18T12:17:57.193Z,13.3
2022-12-18T12:19:59.651Z,7.3
2022-12-18T12:21:59.555Z,11.5
2022-12-18T12:23:59.393Z,15
2022-12-18T12:32:04.190Z,8.3
2022-12-18T12:36:03.870Z,13.8
2022-12-18T12:38:06.337Z,5
2022-12-18T12:40:26.725Z,8.2
2022-12-18T12:42:06.105Z,19.1
2022-12-18T12:52:10.651Z,11.7
2022-12-18T12:54:10.567Z,12.3
2022-12-18T12:56:13.033Z,10.8
2022-12-18T12:58:12.878Z,8.2
2022-12-18T13:00:12.866Z,10.2
2022-12-18T13:02:15.312Z,12.4
2022-12-18T13:04:15.114Z,10.3
2022-12-18T13:10:19.023Z,8.4
2022-12-18T13:12:17.244Z,9.4
2022-12-18T13:14:19.702Z,9
2022-12-18T13:16:19.622Z,8.1
2022-12-18T13:18:19.487Z,11.5
2022-12-18T13:20:21.916Z,8.9
2022-12-18T13:22:21.834Z,8.2
2022-12-18T13:24:21.720Z,6.8
2022-12-18T13:26:28.939Z,7.9
2022-12-18T13:28:24.061Z,9.4
2022-12-18T13:30:23.970Z,9.7
2022-12-18T13:32:26.430Z,10.1
2022-12-18T13:34:28.175Z,11.8
2022-12-18T13:36:26.223Z,8.1
2022-12-18T13:43:31.392Z,8.8
2022-12-18T13:45:31.299Z,11.5
2022-12-18T13:47:33.769Z,18.5
2022-12-18T13:49:33.651Z,16.7
2022-12-18T13:51:33.543Z,11
2022-12-18T13:53:36.007Z,20.4
2022-12-18T13:55:35.926Z,24.9
2022-12-18T13:57:35.828Z,12.4
2022-12-18T13:59:38.249Z,8.2
2022-12-18T14:01:38.389Z,12.1
2022-12-18T14:03:38.094Z,8.6
2022-12-18T14:05:43.699Z,8.6
2022-12-18T14:07:42.675Z,6.7
2022-12-18T14:09:40.591Z,10.2
2022-12-18T14:11:42.733Z,8.5
2022-12-18T14:13:42.617Z,7.8
2022-12-18T14:15:42.521Z,10.5
2022-12-18T14:17:44.967Z,11.8
2022-12-18T14:19:44.877Z,13.2
2022-12-18T14:21:44.754Z,11.8
2022-12-18T14:23:47.207Z,11.3
2022-12-18T14:25:47.113Z,10
2022-12-18T14:27:46.998Z,7.9
2022-12-18T14:29:49.440Z,6.9
2022-12-18T14:31:49.346Z,7.9
2022-12-18T14:33:49.237Z,9.7
2022-12-18T14:35:51.686Z,7.6
2022-12-18T14:37:51.605Z,5.7
2022-12-18T14:39:51.484Z,11
2022-12-18T14:41:53.941Z,10.9
2022-12-18T14:43:53.823Z,7.8
2022-12-18T14:45:53.766Z,11.4
2022-12-18T14:49:56.099Z,8.1
2022-12-18T14:51:55.993Z,14.5
2022-12-18T14:53:58.384Z,8.1
2022-12-18T14:55:58.307Z,10
2022-12-18T14:57:58.215Z,10.2
2022-12-18T15:00:00.675Z,14.8
2022-12-18T15:04:00.432Z,6.6
2022-12-18T15:06:02.897Z,9.5
2022-12-18T15:08:02.825Z,6
2022-12-18T15:10:04.379Z,10.5
2022-12-18T15:12:06.699Z,11.2
2022-12-18T15:14:06.605Z,10.1
2022-12-18T15:16:06.534Z,12.1
2022-12-18T15:18:08.967Z,13.7
2022-12-18T15:22:08.759Z,15.5
2022-12-18T15:36:15.803Z,8.6
2022-12-18T15:38:15.709Z,6.8
2022-12-18T15:40:15.804Z,9.8
2022-12-18T15:42:18.043Z,17.7
2022-12-18T15:44:17.966Z,11.3
2022-12-18T15:46:17.911Z,8.4
2022-12-18T15:48:20.292Z,12.5
2022-12-18T15:50:20.202Z,11.7
2022-12-18T15:52:20.126Z,12.1
2022-12-18T15:54:22.530Z,10.4
2022-12-18T15:56:22.444Z,12.4
2022-12-18T15:58:22.330Z,7
2022-12-18T16:03:21.539Z,10.3
2022-12-18T16:05:21.285Z,9
2022-12-18T16:07:24.629Z,11.4
2022-12-18T16:09:26.401Z,17.2
2022-12-18T16:11:23.511Z,12.2
2022-12-18T16:13:23.401Z,12
2022-12-18T16:15:25.849Z,12.4
2022-12-18T16:17:25.752Z,17.4
2022-12-18T16:19:25.630Z,17.9
2022-12-18T16:21:32.194Z,4.2
2022-12-18T16:23:27.983Z,12.3
2022-12-18T16:25:27.857Z,8.4
2022-12-18T16:27:30.273Z,10.3
2022-12-18T16:29:30.168Z,15.2
2022-12-18T16:31:30.153Z,8.9
2022-12-18T16:38:35.461Z,13
2022-12-18T16:42:37.818Z,13.5
2022-12-18T16:44:37.922Z,14.7
2022-12-18T16:46:37.662Z,12.6
2022-12-18T16:48:40.041Z,12.8
2022-12-18T16:50:39.943Z,10.3
2022-12-18T16:52:39.821Z,15.9
2022-12-18T16:54:42.273Z,13.8
2022-12-18T16:58:42.064Z,11.9
2022-12-18T17:00:44.456Z,10
2022-12-18T17:02:44.689Z,18.7
2022-12-18T17:08:46.634Z,12.7
2022-12-18T17:12:48.959Z,26.7
2022-12-18T17:14:48.875Z,11.5
2022-12-18T17:16:57.829Z,10.4
2022-12-18T17:21:50.794Z,20.4
2022-12-18T17:23:50.650Z,9.2
2022-12-18T17:25:50.590Z,17.4
2022-12-18T17:27:53.024Z,17.7
2022-12-18T17:29:52.934Z,9.4
2022-12-18T17:31:52.802Z,11.4
2022-12-18T17:33:55.249Z,8.7
2022-12-18T17:37:55.050Z,15.6
2022-12-18T17:39:57.501Z,15.3
2022-12-18T17:41:57.389Z,16.8
2022-12-18T17:43:57.280Z,9.8
2022-12-18T17:45:59.725Z,7.7
2022-12-18T17:47:59.945Z,10.7
2022-12-18T17:49:59.536Z,13.5
2022-12-18T17:52:01.953Z,12.8
2022-12-18T17:54:01.882Z,18
2022-12-18T17:56:01.761Z,12.8
2022-12-18T17:58:04.224Z,10.2
2022-12-18T18:00:04.138Z,18.7
2022-12-18T18:02:04.220Z,9.6
2022-12-18T18:09:16.052Z,15.5
2022-12-18T18:11:09.880Z,12
2022-12-18T18:13:12.256Z,17
2022-12-18T18:15:12.208Z,15.7
2022-12-18T18:17:12.088Z,15.1
2022-12-18T18:19:14.507Z,13.1
2022-12-18T18:21:14.430Z,12.4
2022-12-18T18:25:16.770Z,17.3
2022-12-18T18:29:16.578Z,18.6
2022-12-18T18:35:44.951Z,21.2
2022-12-18T18:39:21.125Z,18.3
2022-12-18T18:41:21.017Z,23.2
2022-12-18T18:43:23.466Z,14.4
2022-12-18T18:45:23.357Z,17.2
2022-12-18T18:47:23.248Z,19.9
2022-12-18T18:49:25.699Z,23.7
2022-12-18T18:51:30.044Z,13.7
2022-12-18T18:53:25.494Z,12.8
2022-12-18T18:55:27.937Z,23.3
2022-12-18T18:57:30.522Z,9.6
2022-12-18T18:59:30.423Z,38.2
2022-12-18T19:01:30.317Z,19.4
2022-12-18T19:03:30.093Z,15.6
2022-12-18T19:05:29.973Z,29
2022-12-18T19:07:32.405Z,15.7
2022-12-18T19:09:32.282Z,10.7
2022-12-18T19:11:36.404Z,10.3
2022-12-18T19:16:31.169Z,9.3
2022-12-18T19:18:31.065Z,21.7
2022-12-18T19:20:30.951Z,16.4
2022-12-18T19:22:39.207Z,32
2022-12-18T19:24:39.150Z,18.8
2022-12-18T19:26:39.023Z,22.1
2022-12-18T19:28:41.749Z,17.5
2022-12-18T19:30:41.344Z,19.1
2022-12-18T19:34:43.688Z,10.7
2022-12-18T19:36:43.582Z,16.4
2022-12-18T19:38:45.448Z,21.9
2022-12-18T19:40:45.909Z,20
2022-12-18T19:42:45.805Z,16.5
2022-12-18T19:46:48.098Z,25.2
2022-12-18T19:48:48.020Z,24.1
2022-12-18T19:50:47.933Z,17.7
2022-12-18T19:52:50.352Z,15.5
2022-12-18T19:54:50.266Z,19.7
2022-12-18T19:56:50.156Z,21
2022-12-18T20:07:41.148Z,34.8
2022-12-18T20:09:41.034Z,19.5
2022-12-18T20:11:43.484Z,18.9
2022-12-18T20:13:43.840Z,16.3
2022-12-18T20:28:51.462Z,19.1
2022-12-18T20:30:51.358Z,21.2
2022-12-18T20:32:53.739Z,18.8
2022-12-18T20:34:53.645Z,18.1
2022-12-18T20:36:53.545Z,23.4
2022-12-18T20:43:59.474Z,19.1
2022-12-18T20:45:59.404Z,13
2022-12-18T20:48:01.828Z,23
2022-12-18T20:50:01.693Z,18.1
2022-12-18T20:52:01.585Z,22.2
2022-12-18T20:54:06.117Z,17.3
2022-12-18T20:56:03.950Z,24.6
2022-12-18T20:58:03.844Z,23.4
2022-12-18T21:00:06.253Z,16.8
2022-12-18T21:02:06.273Z,23.7
2022-12-18T21:04:06.022Z,22.8
2022-12-18T21:06:08.480Z,13.8
2022-12-18T21:08:08.362Z,16.7
2022-12-18T21:10:08.240Z,22.6
2022-12-18T21:12:12.407Z,18.8
2022-12-18T21:14:10.562Z,12.8
2022-12-18T21:16:10.457Z,21.5
2022-12-18T21:18:12.899Z,25.9
2022-12-18T21:20:17.288Z,19.8
2022-12-18T21:22:12.674Z,27
2022-12-18T21:24:15.161Z,31.7
2022-12-18T21:26:15.019Z,21.9
2022-12-18T21:28:14.889Z,21.7
2022-12-18T21:30:17.333Z,20
2022-12-18T21:32:17.233Z,23.4
2022-12-18T21:34:17.143Z,27.4
2022-12-18T21:36:19.594Z,26.1
2022-12-18T21:38:19.466Z,15.8
2022-12-18T21:50:23.911Z,10.1
2022-12-18T21:52:32.297Z,21.2
2022-12-18T21:54:26.285Z,25.4
2022-12-18T21:56:26.145Z,19.7
2022-12-18T21:58:26.065Z,24.2
2022-12-18T22:00:28.482Z,38.4
2022-12-18T22:02:28.563Z,22.3
2022-12-18T22:04:28.287Z,26
2022-12-18T22:06:30.717Z,21.2
2022-12-18T22:08:30.595Z,25.1
2022-12-18T22:10:30.524Z,22.7
2022-12-18T22:12:32.966Z,22.6
2022-12-18T22:14:32.825Z,24
2022-12-18T22:16:32.714Z,17
2022-12-18T22:18:35.187Z,23.6
2022-12-18T22:20:35.076Z,19.3
2022-12-18T22:22:34.984Z,16.1
2022-12-18T22:24:37.443Z,16.9
2022-12-18T22:26:40.144Z,34
2022-12-18T22:28:37.187Z,28.1
2022-12-18T22:30:39.631Z,22.8
2022-12-18T22:32:39.520Z,26.9
2022-12-18T22:34:39.416Z,21.4
2022-12-18T22:36:41.844Z,26.9
2022-12-18T22:38:41.735Z,23.4
2022-12-18T22:40:41.642Z,20.9
2022-12-18T22:44:43.966Z,25.7
2022-12-18T22:46:43.885Z,19.6
2022-12-18T22:48:46.305Z,29
2022-12-18T22:50:46.205Z,15
2022-12-18T22:52:46.092Z,19.6
2022-12-18T22:54:48.517Z,25.1
2022-12-18T22:56:48.414Z,17.3
2022-12-18T22:58:48.344Z,37
2022-12-18T23:00:50.725Z,29.4
2022-12-18T23:02:54.439Z,31.4
2022-12-18T23:04:50.529Z,29.2
2022-12-18T23:08:55.981Z,16.9
2022-12-18T23:10:52.758Z,22.1
2022-12-18T23:12:55.184Z,30
2022-12-18T23:23:58.910Z,36.8
2022-12-18T23:28:01.243Z,17.9
2022-12-18T23:30:01.167Z,41.3
2022-12-18T23:32:01.062Z,19.2
2022-12-18T23:34:03.465Z,33.4
2022-12-18T23:36:03.356Z,32
2022-12-18T23:38:03.265Z,34.6
2022-12-18T23:40:05.702Z,24.3
2022-12-18T23:42:05.727Z,24.5
2022-12-18T23:44:05.487Z,31
2022-12-18T23:46:07.938Z,30.9
2022-12-18T23:48:07.817Z,14.6
2022-12-18T23:50:07.701Z,35.4
2022-12-18T23:52:10.149Z,21.3
2022-12-18T23:54:10.044Z,32.9
2022-12-18T23:56:09.943Z,20.2
2022-12-18T23:58:12.373Z,7.6
